sensor_id;sensor_type;location;lat;lon;timestamp;P1;durP1;ratioP1;P2;durP2;ratioP2
67090;SDS011;54007;55.818;49.058;2023-04-25T08:57:17;28.12;;;5.08;;
67090;SDS011;54007;55.818;49.058;2023-04-25T08:59:43;17.52;;;4.10;;
67090;SDS011;54007;55.818;49.058;2023-04-25T09:02:09;15.47;;;4.17;;
67090;SDS011;54007;55.818;49.058;2023-04-25T09:04:34;15.08;;;4.40;;
67090;SDS011;54007;55.818;49.058;2023-04-25T09:07:00;12.63;;;3.97;;
67090;SDS011;54007;55.818;49.058;2023-04-25T09:09:26;16.82;;;4.35;;
67090;SDS011;54007;55.818;49.058;2023-04-25T09:11:52;12.25;;;4.10;;
67090;SDS011;54007;55.818;49.058;2023-04-25T09:17:20;15.40;;;3.77;;
67090;SDS011;54007;55.818;49.058;2023-04-25T09:19:46;15.43;;;4.37;;
67090;SDS011;54007;55.818;49.058;2023-04-25T09:22:12;18.73;;;4.10;;
67090;SDS011;54007;55.818;49.058;2023-04-25T09:24:38;17.65;;;4.33;;
67090;SDS011;54007;55.818;49.058;2023-04-25T09:27:07;14.83;;;4.30;;
67090;SDS011;54007;55.818;49.058;2023-04-25T09:29:33;10.23;;;3.37;;
67090;SDS011;54007;55.818;49.058;2023-04-25T09:32:10;15.43;;;3.90;;
67090;SDS011;54007;55.818;49.058;2023-04-25T09:34:39;19.42;;;4.30;;
67090;SDS011;54007;55.818;49.058;2023-04-25T09:37:23;16.23;;;4.13;;
67090;SDS011;54007;55.818;49.058;2023-04-25T09:39:49;14.65;;;4.55;;
67090;SDS011;54007;55.818;49.058;2023-04-25T09:42:14;16.75;;;4.50;;
67090;SDS011;54007;55.818;49.058;2023-04-25T09:44:45;16.63;;;5.13;;
67090;SDS011;54007;55.818;49.058;2023-04-25T09:47:12;18.60;;;5.00;;
67090;SDS011;54007;55.818;49.058;2023-04-25T09:49:38;20.82;;;5.03;;
67090;SDS011;54007;55.818;49.058;2023-04-25T09:52:03;12.47;;;4.70;;
67090;SDS011;54007;55.818;49.058;2023-04-25T09:54:29;14.70;;;5.17;;
67090;SDS011;54007;55.818;49.058;2023-04-25T09:56:54;17.95;;;5.15;;
67090;SDS011;54007;55.818;49.058;2023-04-25T09:59:21;18.50;;;5.30;;
67090;SDS011;54007;55.818;49.058;2023-04-25T10:01:46;16.25;;;5.15;;
67090;SDS011;54007;55.818;49.058;2023-04-25T10:04:12;14.57;;;5.00;;
67090;SDS011;54007;55.818;49.058;2023-04-25T10:06:38;11.80;;;4.47;;
67090;SDS011;54007;55.818;49.058;2023-04-25T10:09:04;11.60;;;4.58;;
67090;SDS011;54007;55.818;49.058;2023-04-25T10:11:30;12.33;;;4.93;;
67090;SDS011;54007;55.818;49.058;2023-04-25T10:14:02;15.38;;;4.78;;
67090;SDS011;54007;55.818;49.058;2023-04-25T10:16:28;13.58;;;5.17;;
67090;SDS011;54007;55.818;49.058;2023-04-25T10:18:53;14.85;;;4.65;;
67090;SDS011;54007;55.818;49.058;2023-04-25T10:21:19;16.47;;;4.97;;
67090;SDS011;54007;55.818;49.058;2023-04-25T10:23:45;14.38;;;4.75;;
67090;SDS011;54007;55.818;49.058;2023-04-25T10:26:11;14.17;;;4.50;;
67090;SDS011;54007;55.818;49.058;2023-04-25T10:28:55;12.18;;;3.70;;
67090;SDS011;54007;55.818;49.058;2023-04-25T10:31:21;11.30;;;3.98;;
67090;SDS011;54007;55.818;49.058;2023-04-25T10:33:46;17.80;;;4.50;;
67090;SDS011;54007;55.818;49.058;2023-04-25T10:36:13;10.90;;;4.22;;
67090;SDS011;54007;55.818;49.058;2023-04-25T10:38:38;16.65;;;4.17;;
67090;SDS011;54007;55.818;49.058;2023-04-25T10:41:05;11.00;;;4.10;;
67090;SDS011;54007;55.818;49.058;2023-04-25T10:43:34;13.28;;;4.00;;
67090;SDS011;54007;55.818;49.058;2023-04-25T10:46:02;9.08;;;3.67;;
67090;SDS011;54007;55.818;49.058;2023-04-25T10:48:28;14.70;;;3.90;;
67090;SDS011;54007;55.818;49.058;2023-04-25T10:51:11;16.73;;;4.08;;
67090;SDS011;54007;55.818;49.058;2023-04-25T10:53:37;15.13;;;4.35;;
67090;SDS011;54007;55.818;49.058;2023-04-25T10:58:44;13.98;;;3.83;;
67090;SDS011;54007;55.818;49.058;2023-04-25T11:01:09;12.80;;;3.87;;
67090;SDS011;54007;55.818;49.058;2023-04-25T11:03:42;13.55;;;4.00;;
67090;SDS011;54007;55.818;49.058;2023-04-25T11:06:10;14.57;;;4.20;;
67090;SDS011;54007;55.818;49.058;2023-04-25T11:08:49;15.90;;;4.00;;
67090;SDS011;54007;55.818;49.058;2023-04-25T11:11:05;13.45;;;4.25;;
67090;SDS011;54007;55.818;49.058;2023-04-25T11:13:31;16.80;;;3.83;;
67090;SDS011;54007;55.818;49.058;2023-04-25T11:15:56;13.20;;;3.85;;
67090;SDS011;54007;55.818;49.058;2023-04-25T11:18:25;18.75;;;4.42;;
67090;SDS011;54007;55.818;49.058;2023-04-25T11:20:48;15.47;;;4.10;;
67090;SDS011;54007;55.818;49.058;2023-04-25T11:23:14;18.02;;;4.42;;
67090;SDS011;54007;55.818;49.058;2023-04-25T11:25:40;14.27;;;3.90;;
67090;SDS011;54007;55.818;49.058;2023-04-25T11:28:06;11.05;;;3.80;;
67090;SDS011;54007;55.818;49.058;2023-04-25T11:30:47;13.80;;;4.53;;
67090;SDS011;54007;55.818;49.058;2023-04-25T11:33:07;15.65;;;4.22;;
67090;SDS011;54007;55.818;49.058;2023-04-25T11:35:33;24.40;;;4.83;;
67090;SDS011;54007;55.818;49.058;2023-04-25T11:37:59;13.72;;;4.00;;
67090;SDS011;54007;55.818;49.058;2023-04-25T11:40:24;12.17;;;4.07;;
67090;SDS011;54007;55.818;49.058;2023-04-25T11:42:50;16.57;;;4.28;;
67090;SDS011;54007;55.818;49.058;2023-04-25T11:45:16;18.95;;;4.87;;
67090;SDS011;54007;55.818;49.058;2023-04-25T11:47:42;15.73;;;4.23;;
67090;SDS011;54007;55.818;49.058;2023-04-25T11:50:08;14.98;;;4.22;;
67090;SDS011;54007;55.818;49.058;2023-04-25T11:52:37;17.37;;;4.30;;
67090;SDS011;54007;55.818;49.058;2023-04-25T11:55:09;20.63;;;4.43;;
67090;SDS011;54007;55.818;49.058;2023-04-25T11:57:31;12.55;;;4.00;;
67090;SDS011;54007;55.818;49.058;2023-04-25T12:00:05;18.55;;;4.20;;
67090;SDS011;54007;55.818;49.058;2023-04-25T12:02:24;10.00;;;4.13;;
67090;SDS011;54007;55.818;49.058;2023-04-25T12:04:49;19.20;;;3.90;;
67090;SDS011;54007;55.818;49.058;2023-04-25T12:07:15;14.45;;;4.50;;
67090;SDS011;54007;55.818;49.058;2023-04-25T12:09:41;10.97;;;3.80;;
67090;SDS011;54007;55.818;49.058;2023-04-25T12:12:09;17.90;;;4.10;;
67090;SDS011;54007;55.818;49.058;2023-04-25T12:14:33;17.93;;;4.40;;
67090;SDS011;54007;55.818;49.058;2023-04-25T12:16:59;14.15;;;3.80;;
67090;SDS011;54007;55.818;49.058;2023-04-25T12:19:24;10.90;;;3.30;;
67090;SDS011;54007;55.818;49.058;2023-04-25T12:21:50;13.87;;;3.37;;
67090;SDS011;54007;55.818;49.058;2023-04-25T12:24:16;15.40;;;3.65;;
67090;SDS011;54007;55.818;49.058;2023-04-25T12:27:01;15.30;;;3.60;;
67090;SDS011;54007;55.818;49.058;2023-04-25T12:29:26;8.93;;;3.70;;
67090;SDS011;54007;55.818;49.058;2023-04-25T12:31:52;8.45;;;3.60;;
67090;SDS011;54007;55.818;49.058;2023-04-25T12:34:17;10.23;;;3.60;;
67090;SDS011;54007;55.818;49.058;2023-04-25T12:36:43;9.73;;;3.40;;
67090;SDS011;54007;55.818;49.058;2023-04-25T12:39:14;11.70;;;3.70;;
67090;SDS011;54007;55.818;49.058;2023-04-25T12:41:35;16.50;;;4.10;;
67090;SDS011;54007;55.818;49.058;2023-04-25T12:44:01;12.25;;;3.80;;
67090;SDS011;54007;55.818;49.058;2023-04-25T12:46:26;15.15;;;3.90;;
67090;SDS011;54007;55.818;49.058;2023-04-25T12:48:58;12.80;;;3.83;;
67090;SDS011;54007;55.818;49.058;2023-04-25T12:51:24;11.73;;;4.12;;
67090;SDS011;54007;55.818;49.058;2023-04-25T12:53:50;13.95;;;4.17;;
67090;SDS011;54007;55.818;49.058;2023-04-25T12:56:16;14.03;;;4.30;;
67090;SDS011;54007;55.818;49.058;2023-04-25T12:58:41;16.60;;;3.85;;
67090;SDS011;54007;55.818;49.058;2023-04-25T13:01:07;12.67;;;4.17;;
67090;SDS011;54007;55.818;49.058;2023-04-25T13:03:34;19.52;;;5.33;;
67090;SDS011;54007;55.818;49.058;2023-04-25T13:06:00;17.40;;;4.37;;
67090;SDS011;54007;55.818;49.058;2023-04-25T13:08:26;9.73;;;3.57;;
67090;SDS011;54007;55.818;49.058;2023-04-25T13:10:52;16.85;;;4.62;;
67090;SDS011;54007;55.818;49.058;2023-04-25T13:13:18;12.85;;;3.60;;
67090;SDS011;54007;55.818;49.058;2023-04-25T13:15:43;13.10;;;4.03;;
67090;SDS011;54007;55.818;49.058;2023-04-25T13:18:09;14.55;;;3.80;;
67090;SDS011;54007;55.818;49.058;2023-04-25T13:20:35;17.97;;;4.50;;
67090;SDS011;54007;55.818;49.058;2023-04-25T13:23:01;17.87;;;4.00;;
67090;SDS011;54007;55.818;49.058;2023-04-25T13:25:27;21.02;;;4.78;;
67090;SDS011;54007;55.818;49.058;2023-04-25T13:27:53;13.17;;;4.97;;
67090;SDS011;54007;55.818;49.058;2023-04-25T13:30:18;19.45;;;4.55;;
67090;SDS011;54007;55.818;49.058;2023-04-25T13:32:44;13.90;;;4.03;;
67090;SDS011;54007;55.818;49.058;2023-04-25T13:35:12;24.60;;;4.30;;
67090;SDS011;54007;55.818;49.058;2023-04-25T13:37:36;14.90;;;3.80;;
67090;SDS011;54007;55.818;49.058;2023-04-25T13:40:06;18.97;;;4.17;;
67090;SDS011;54007;55.818;49.058;2023-04-25T13:42:31;15.88;;;4.65;;
67090;SDS011;54007;55.818;49.058;2023-04-25T13:44:57;14.00;;;4.20;;
67090;SDS011;54007;55.818;49.058;2023-04-25T13:47:23;13.00;;;4.47;;
67090;SDS011;54007;55.818;49.058;2023-04-25T13:49:49;12.00;;;4.50;;
67090;SDS011;54007;55.818;49.058;2023-04-25T13:52:14;26.73;;;4.47;;
67090;SDS011;54007;55.818;49.058;2023-04-25T13:54:40;14.98;;;4.80;;
67090;SDS011;54007;55.818;49.058;2023-04-25T13:57:06;9.45;;;3.47;;
67090;SDS011;54007;55.818;49.058;2023-04-25T13:59:32;11.53;;;4.23;;
67090;SDS011;54007;55.818;49.058;2023-04-25T14:01:58;11.57;;;3.85;;
67090;SDS011;54007;55.818;49.058;2023-04-25T14:04:23;11.30;;;4.13;;
67090;SDS011;54007;55.818;49.058;2023-04-25T14:06:56;15.10;;;4.25;;
67090;SDS011;54007;55.818;49.058;2023-04-25T14:09:22;14.80;;;4.50;;
67090;SDS011;54007;55.818;49.058;2023-04-25T14:11:47;20.48;;;5.42;;
67090;SDS011;54007;55.818;49.058;2023-04-25T14:14:13;20.77;;;4.83;;
67090;SDS011;54007;55.818;49.058;2023-04-25T14:16:39;17.20;;;4.80;;
67090;SDS011;54007;55.818;49.058;2023-04-25T14:19:05;13.53;;;4.23;;
67090;SDS011;54007;55.818;49.058;2023-04-25T14:21:31;20.70;;;4.37;;
67090;SDS011;54007;55.818;49.058;2023-04-25T14:23:57;18.57;;;6.37;;
67090;SDS011;54007;55.818;49.058;2023-04-25T14:26:22;12.57;;;4.40;;
67090;SDS011;54007;55.818;49.058;2023-04-25T14:28:48;15.93;;;4.30;;
67090;SDS011;54007;55.818;49.058;2023-04-25T14:31:14;16.90;;;4.47;;
67090;SDS011;54007;55.818;49.058;2023-04-25T14:33:40;21.60;;;5.33;;
67090;SDS011;54007;55.818;49.058;2023-04-25T14:36:06;14.03;;;4.65;;
67090;SDS011;54007;55.818;49.058;2023-04-25T14:38:32;21.13;;;4.13;;
67090;SDS011;54007;55.818;49.058;2023-04-25T14:40:58;11.78;;;4.15;;
67090;SDS011;54007;55.818;49.058;2023-04-25T14:43:23;13.67;;;4.87;;
67090;SDS011;54007;55.818;49.058;2023-04-25T14:45:49;13.05;;;4.35;;
67090;SDS011;54007;55.818;49.058;2023-04-25T14:48:15;10.10;;;4.00;;
67090;SDS011;54007;55.818;49.058;2023-04-25T14:50:41;14.93;;;4.60;;
67090;SDS011;54007;55.818;49.058;2023-04-25T14:53:09;14.78;;;4.75;;
67090;SDS011;54007;55.818;49.058;2023-04-25T14:55:33;22.05;;;5.33;;
67090;SDS011;54007;55.818;49.058;2023-04-25T14:57:59;28.57;;;5.53;;
67090;SDS011;54007;55.818;49.058;2023-04-25T15:00:25;19.80;;;5.30;;
67090;SDS011;54007;55.818;49.058;2023-04-25T15:02:50;18.80;;;5.03;;
67090;SDS011;54007;55.818;49.058;2023-04-25T15:05:16;19.20;;;5.10;;
67090;SDS011;54007;55.818;49.058;2023-04-25T15:07:42;17.37;;;5.50;;
67090;SDS011;54007;55.818;49.058;2023-04-25T15:10:18;21.90;;;7.10;;
67090;SDS011;54007;55.818;49.058;2023-04-25T15:12:40;24.87;;;8.23;;
67090;SDS011;54007;55.818;49.058;2023-04-25T15:15:06;22.32;;;6.83;;
67090;SDS011;54007;55.818;49.058;2023-04-25T15:17:32;24.57;;;5.43;;
67090;SDS011;54007;55.818;49.058;2023-04-25T15:19:58;24.87;;;7.42;;
67090;SDS011;54007;55.818;49.058;2023-04-25T15:22:24;19.07;;;5.53;;
67090;SDS011;54007;55.818;49.058;2023-04-25T15:24:56;14.60;;;5.15;;
67090;SDS011;54007;55.818;49.058;2023-04-25T15:27:26;13.78;;;5.30;;
67090;SDS011;54007;55.818;49.058;2023-04-25T15:29:51;14.55;;;5.30;;
67090;SDS011;54007;55.818;49.058;2023-04-25T15:32:17;16.97;;;5.83;;
67090;SDS011;54007;55.818;49.058;2023-04-25T15:34:43;14.40;;;5.60;;
67090;SDS011;54007;55.818;49.058;2023-04-25T15:37:09;14.05;;;5.62;;
67090;SDS011;54007;55.818;49.058;2023-04-25T15:39:35;13.90;;;6.17;;
67090;SDS011;54007;55.818;49.058;2023-04-25T15:42:01;14.10;;;5.75;;
67090;SDS011;54007;55.818;49.058;2023-04-25T15:44:26;13.73;;;5.60;;
67090;SDS011;54007;55.818;49.058;2023-04-25T15:46:52;15.95;;;6.12;;
67090;SDS011;54007;55.818;49.058;2023-04-25T15:49:18;13.50;;;5.85;;
67090;SDS011;54007;55.818;49.058;2023-04-25T15:51:44;12.47;;;5.90;;
67090;SDS011;54007;55.818;49.058;2023-04-25T15:54:10;14.35;;;5.83;;
67090;SDS011;54007;55.818;49.058;2023-04-25T15:56:36;15.93;;;5.70;;
67090;SDS011;54007;55.818;49.058;2023-04-25T15:59:01;22.95;;;10.65;;
67090;SDS011;54007;55.818;49.058;2023-04-25T16:01:27;17.07;;;6.90;;
67090;SDS011;54007;55.818;49.058;2023-04-25T16:03:53;13.05;;;6.62;;
67090;SDS011;54007;55.818;49.058;2023-04-25T16:06:19;13.98;;;6.53;;
67090;SDS011;54007;55.818;49.058;2023-04-25T16:08:45;15.33;;;7.00;;
67090;SDS011;54007;55.818;49.058;2023-04-25T16:11:11;18.23;;;7.80;;
67090;SDS011;54007;55.818;49.058;2023-04-25T16:13:36;11.93;;;6.85;;
67090;SDS011;54007;55.818;49.058;2023-04-25T16:16:02;13.68;;;6.78;;
67090;SDS011;54007;55.818;49.058;2023-04-25T16:18:28;18.90;;;6.95;;
67090;SDS011;54007;55.818;49.058;2023-04-25T16:20:54;13.57;;;6.03;;
67090;SDS011;54007;55.818;49.058;2023-04-25T16:23:20;14.30;;;6.42;;
67090;SDS011;54007;55.818;49.058;2023-04-25T16:25:46;15.23;;;6.97;;
67090;SDS011;54007;55.818;49.058;2023-04-25T16:28:11;14.83;;;7.10;;
67090;SDS011;54007;55.818;49.058;2023-04-25T16:30:37;17.73;;;7.60;;
67090;SDS011;54007;55.818;49.058;2023-04-25T16:33:03;17.17;;;7.80;;
67090;SDS011;54007;55.818;49.058;2023-04-25T16:35:29;15.08;;;7.92;;
67090;SDS011;54007;55.818;49.058;2023-04-25T16:37:55;17.62;;;7.55;;
67090;SDS011;54007;55.818;49.058;2023-04-25T16:40:21;17.20;;;8.20;;
67090;SDS011;54007;55.818;49.058;2023-04-25T16:42:53;17.75;;;8.15;;
67090;SDS011;54007;55.818;49.058;2023-04-25T16:45:19;19.48;;;8.13;;
67090;SDS011;54007;55.818;49.058;2023-04-25T16:47:45;18.50;;;7.50;;
67090;SDS011;54007;55.818;49.058;2023-04-25T16:50:12;15.08;;;7.47;;
67090;SDS011;54007;55.818;49.058;2023-04-25T16:52:36;13.45;;;7.78;;
67090;SDS011;54007;55.818;49.058;2023-04-25T16:55:02;13.10;;;7.10;;
67090;SDS011;54007;55.818;49.058;2023-04-25T16:57:28;12.47;;;6.97;;
67090;SDS011;54007;55.818;49.058;2023-04-25T16:59:54;14.60;;;6.37;;
67090;SDS011;54007;55.818;49.058;2023-04-25T17:02:20;15.35;;;7.55;;
67090;SDS011;54007;55.818;49.058;2023-04-25T17:04:45;16.25;;;7.28;;
67090;SDS011;54007;55.818;49.058;2023-04-25T17:07:11;15.63;;;7.97;;
67090;SDS011;54007;55.818;49.058;2023-04-25T17:09:37;18.15;;;8.23;;
67090;SDS011;54007;55.818;49.058;2023-04-25T17:12:03;17.97;;;9.10;;
67090;SDS011;54007;55.818;49.058;2023-04-25T17:14:29;17.52;;;7.92;;
67090;SDS011;54007;55.818;49.058;2023-04-25T17:16:55;15.35;;;7.55;;
67090;SDS011;54007;55.818;49.058;2023-04-25T17:19:20;17.57;;;7.90;;
67090;SDS011;54007;55.818;49.058;2023-04-25T17:21:46;18.82;;;8.50;;
67090;SDS011;54007;55.818;49.058;2023-04-25T17:24:12;16.73;;;8.17;;
67090;SDS011;54007;55.818;49.058;2023-04-25T17:26:38;14.83;;;7.97;;
67090;SDS011;54007;55.818;49.058;2023-04-25T17:29:04;14.70;;;8.08;;
67090;SDS011;54007;55.818;49.058;2023-04-25T17:31:30;16.07;;;8.48;;
67090;SDS011;54007;55.818;49.058;2023-04-25T17:33:55;15.30;;;7.37;;
67090;SDS011;54007;55.818;49.058;2023-04-25T17:36:21;15.50;;;7.47;;
67090;SDS011;54007;55.818;49.058;2023-04-25T17:38:47;15.55;;;7.40;;
67090;SDS011;54007;55.818;49.058;2023-04-25T17:41:13;13.75;;;6.90;;
67090;SDS011;54007;55.818;49.058;2023-04-25T17:43:39;13.70;;;7.90;;
67090;SDS011;54007;55.818;49.058;2023-04-25T17:46:05;16.55;;;6.67;;
67090;SDS011;54007;55.818;49.058;2023-04-25T17:48:30;16.17;;;7.73;;
67090;SDS011;54007;55.818;49.058;2023-04-25T17:50:56;13.80;;;7.45;;
67090;SDS011;54007;55.818;49.058;2023-04-25T17:53:23;14.78;;;7.80;;
67090;SDS011;54007;55.818;49.058;2023-04-25T17:55:51;15.80;;;7.90;;
67090;SDS011;54007;55.818;49.058;2023-04-25T17:58:16;16.45;;;7.92;;
